sensor_id;sensor_type;location;lat;lon;timestamp;temperature;humidity
997;DHT22;487;50.126;8.698;2024-03-06T00:01:23;9.80;99.90
997;DHT22;487;50.126;8.698;2024-03-06T00:03:51;9.80;99.90
997;DHT22;487;50.126;8.698;2024-03-06T00:06:19;9.90;99.90
997;DHT22;487;50.126;8.698;2024-03-06T00:08:47;9.90;99.90
997;DHT22;487;50.126;8.698;2024-03-06T00:11:15;9.90;99.90
997;DHT22;487;50.126;8.698;2024-03-06T00:13:43;9.90;99.90
997;DHT22;487;50.126;8.698;2024-03-06T00:16:16;9.80;99.90
997;DHT22;487;50.126;8.698;2024-03-06T00:18:46;9.90;99.90
997;DHT22;487;50.126;8.698;2024-03-06T00:23:42;9.80;99.90
997;DHT22;487;50.126;8.698;2024-03-06T00:26:12;9.70;99.90
997;DHT22;487;50.126;8.698;2024-03-06T00:28:40;9.70;99.90
997;DHT22;487;50.126;8.698;2024-03-06T00:31:08;9.70;99.90
997;DHT22;487;50.126;8.698;2024-03-06T00:33:37;9.70;99.90
997;DHT22;487;50.126;8.698;2024-03-06T00:36:06;9.70;99.90
997;DHT22;487;50.126;8.698;2024-03-06T00:41:02;9.60;99.90
997;DHT22;487;50.126;8.698;2024-03-06T00:43:30;9.60;99.90
997;DHT22;487;50.126;8.698;2024-03-06T00:45:58;9.50;99.90
997;DHT22;487;50.126;8.698;2024-03-06T00:48:27;9.60;99.90
997;DHT22;487;50.126;8.698;2024-03-06T00:50:56;9.50;99.90
997;DHT22;487;50.126;8.698;2024-03-06T00:53:24;9.50;99.90
997;DHT22;487;50.126;8.698;2024-03-06T00:55:52;9.60;99.90
997;DHT22;487;50.126;8.698;2024-03-06T00:58:20;9.60;99.90
997;DHT22;487;50.126;8.698;2024-03-06T01:00:48;9.60;99.90
997;DHT22;487;50.126;8.698;2024-03-06T01:03:16;9.60;99.90
997;DHT22;487;50.126;8.698;2024-03-06T01:05:44;9.60;99.90
997;DHT22;487;50.126;8.698;2024-03-06T01:08:14;9.60;99.90
997;DHT22;487;50.126;8.698;2024-03-06T01:10:44;9.60;99.90
997;DHT22;487;50.126;8.698;2024-03-06T01:13:12;9.60;99.90
997;DHT22;487;50.126;8.698;2024-03-06T01:15:40;9.60;99.90
997;DHT22;487;50.126;8.698;2024-03-06T01:18:08;9.50;99.90
997;DHT22;487;50.126;8.698;2024-03-06T01:20:36;9.60;99.90
997;DHT22;487;50.126;8.698;2024-03-06T01:23:05;9.60;99.90
997;DHT22;487;50.126;8.698;2024-03-06T01:25:34;9.50;99.90
997;DHT22;487;50.126;8.698;2024-03-06T01:28:02;9.50;99.90
997;DHT22;487;50.126;8.698;2024-03-06T01:30:30;9.40;99.90
997;DHT22;487;50.126;8.698;2024-03-06T01:32:58;9.40;99.90
997;DHT22;487;50.126;8.698;2024-03-06T01:35:26;9.40;99.90
997;DHT22;487;50.126;8.698;2024-03-06T01:37:54;9.40;99.90
997;DHT22;487;50.126;8.698;2024-03-06T01:40:22;9.40;99.90
997;DHT22;487;50.126;8.698;2024-03-06T01:42:51;9.40;99.90
997;DHT22;487;50.126;8.698;2024-03-06T01:45:19;9.30;99.90
997;DHT22;487;50.126;8.698;2024-03-06T01:47:47;9.30;99.90
997;DHT22;487;50.126;8.698;2024-03-06T01:50:17;9.30;99.90
997;DHT22;487;50.126;8.698;2024-03-06T01:52:46;9.30;99.90
997;DHT22;487;50.126;8.698;2024-03-06T01:55:13;9.30;99.90
997;DHT22;487;50.126;8.698;2024-03-06T01:57:42;9.20;99.90
997;DHT22;487;50.126;8.698;2024-03-06T02:00:12;9.30;99.90
997;DHT22;487;50.126;8.698;2024-03-06T02:02:43;9.20;99.90
997;DHT22;487;50.126;8.698;2024-03-06T02:05:11;9.30;99.90
997;DHT22;487;50.126;8.698;2024-03-06T02:07:39;9.10;99.90
997;DHT22;487;50.126;8.698;2024-03-06T02:10:08;9.10;99.90
997;DHT22;487;50.126;8.698;2024-03-06T02:12:38;9.10;99.90
997;DHT22;487;50.126;8.698;2024-03-06T02:15:08;9.10;99.90
997;DHT22;487;50.126;8.698;2024-03-06T02:17:40;9.00;99.90
997;DHT22;487;50.126;8.698;2024-03-06T02:20:09;9.00;99.90
997;DHT22;487;50.126;8.698;2024-03-06T02:22:41;9.00;99.90
997;DHT22;487;50.126;8.698;2024-03-06T02:25:09;9.00;99.90
997;DHT22;487;50.126;8.698;2024-03-06T02:27:37;9.00;99.90
997;DHT22;487;50.126;8.698;2024-03-06T02:30:06;9.00;99.90
997;DHT22;487;50.126;8.698;2024-03-06T02:32:34;8.90;99.90
997;DHT22;487;50.126;8.698;2024-03-06T02:35:02;8.80;99.90
997;DHT22;487;50.126;8.698;2024-03-06T02:37:35;8.80;99.90
997;DHT22;487;50.126;8.698;2024-03-06T02:40:06;8.80;99.90
997;DHT22;487;50.126;8.698;2024-03-06T02:42:34;8.80;99.90
997;DHT22;487;50.126;8.698;2024-03-06T02:45:03;8.80;99.90
997;DHT22;487;50.126;8.698;2024-03-06T02:47:31;8.70;99.90
997;DHT22;487;50.126;8.698;2024-03-06T02:49:59;8.80;99.90
997;DHT22;487;50.126;8.698;2024-03-06T02:52:27;8.80;99.90
997;DHT22;487;50.126;8.698;2024-03-06T02:54:56;8.80;99.90
997;DHT22;487;50.126;8.698;2024-03-06T02:57:28;8.70;99.90
997;DHT22;487;50.126;8.698;2024-03-06T02:59:56;8.70;99.90
997;DHT22;487;50.126;8.698;2024-03-06T03:02:25;8.70;99.90
997;DHT22;487;50.126;8.698;2024-03-06T03:04:53;8.70;99.90
997;DHT22;487;50.126;8.698;2024-03-06T03:07:21;8.60;99.90
997;DHT22;487;50.126;8.698;2024-03-06T03:09:50;8.60;99.90
997;DHT22;487;50.126;8.698;2024-03-06T03:12:18;8.60;99.90
997;DHT22;487;50.126;8.698;2024-03-06T03:14:47;8.60;99.90
997;DHT22;487;50.126;8.698;2024-03-06T03:17:15;8.60;99.90
997;DHT22;487;50.126;8.698;2024-03-06T03:19:43;8.60;99.90
997;DHT22;487;50.126;8.698;2024-03-06T03:22:11;8.60;99.90
997;DHT22;487;50.126;8.698;2024-03-06T03:24:41;8.60;99.90
997;DHT22;487;50.126;8.698;2024-03-06T03:27:09;8.50;99.90
997;DHT22;487;50.126;8.698;2024-03-06T03:29:37;8.50;99.90
997;DHT22;487;50.126;8.698;2024-03-06T03:32:07;8.50;99.90
997;DHT22;487;50.126;8.698;2024-03-06T03:34:35;8.40;99.90
997;DHT22;487;50.126;8.698;2024-03-06T03:37:03;8.40;99.90
997;DHT22;487;50.126;8.698;2024-03-06T03:39:31;8.40;99.90
997;DHT22;487;50.126;8.698;2024-03-06T03:41:59;8.40;99.90
997;DHT22;487;50.126;8.698;2024-03-06T03:44:27;8.30;99.90
997;DHT22;487;50.126;8.698;2024-03-06T03:46:55;8.30;99.90
997;DHT22;487;50.126;8.698;2024-03-06T03:49:24;8.30;99.90
997;DHT22;487;50.126;8.698;2024-03-06T03:51:52;8.30;99.90
997;DHT22;487;50.126;8.698;2024-03-06T03:54:20;8.30;99.90
997;DHT22;487;50.126;8.698;2024-03-06T03:56:48;8.30;99.90
997;DHT22;487;50.126;8.698;2024-03-06T03:59:16;8.30;99.90
997;DHT22;487;50.126;8.698;2024-03-06T04:01:45;8.30;99.90
997;DHT22;487;50.126;8.698;2024-03-06T04:04:13;8.30;99.90
997;DHT22;487;50.126;8.698;2024-03-06T04:06:42;8.20;99.90
997;DHT22;487;50.126;8.698;2024-03-06T04:09:10;8.30;99.90
997;DHT22;487;50.126;8.698;2024-03-06T04:11:38;8.30;99.90
997;DHT22;487;50.126;8.698;2024-03-06T04:14:07;8.30;99.90
997;DHT22;487;50.126;8.698;2024-03-06T04:16:35;8.30;99.90
997;DHT22;487;50.126;8.698;2024-03-06T04:19:03;8.30;99.90
997;DHT22;487;50.126;8.698;2024-03-06T04:21:31;8.30;99.90
997;DHT22;487;50.126;8.698;2024-03-06T04:24:00;8.30;99.90
997;DHT22;487;50.126;8.698;2024-03-06T04:26:28;8.30;99.90
997;DHT22;487;50.126;8.698;2024-03-06T04:28:56;8.30;99.90
997;DHT22;487;50.126;8.698;2024-03-06T04:31:24;8.30;99.90
997;DHT22;487;50.126;8.698;2024-03-06T04:33:52;8.30;99.90
997;DHT22;487;50.126;8.698;2024-03-06T04:36:20;8.30;99.90
997;DHT22;487;50.126;8.698;2024-03-06T04:38:48;8.30;99.90
997;DHT22;487;50.126;8.698;2024-03-06T04:41:20;8.30;99.90
997;DHT22;487;50.126;8.698;2024-03-06T04:43:50;8.40;99.90
997;DHT22;487;50.126;8.698;2024-03-06T04:46:18;8.30;99.90
997;DHT22;487;50.126;8.698;2024-03-06T04:48:46;8.30;99.90
997;DHT22;487;50.126;8.698;2024-03-06T04:51:15;8.30;99.90
997;DHT22;487;50.126;8.698;2024-03-06T04:53:42;8.30;99.90
997;DHT22;487;50.126;8.698;2024-03-06T04:56:10;8.40;99.90
997;DHT22;487;50.126;8.698;2024-03-06T04:58:41;8.40;99.90
997;DHT22;487;50.126;8.698;2024-03-06T05:01:11;8.40;99.90
997;DHT22;487;50.126;8.698;2024-03-06T05:03:40;8.40;99.90
997;DHT22;487;50.126;8.698;2024-03-06T05:06:25;8.40;99.90
997;DHT22;487;50.126;8.698;2024-03-06T05:09:11;8.40;99.90
997;DHT22;487;50.126;8.698;2024-03-06T05:11:57;8.30;99.90
997;DHT22;487;50.126;8.698;2024-03-06T05:14:43;8.20;99.90
997;DHT22;487;50.126;8.698;2024-03-06T05:17:29;8.20;99.90
997;DHT22;487;50.126;8.698;2024-03-06T05:20:15;8.20;99.90
997;DHT22;487;50.126;8.698;2024-03-06T05:23:00;8.20;99.90
997;DHT22;487;50.126;8.698;2024-03-06T05:25:46;8.20;99.90
997;DHT22;487;50.126;8.698;2024-03-06T05:28:32;9.90;99.90
997;DHT22;487;50.126;8.698;2024-03-06T05:31:19;8.20;99.90
997;DHT22;487;50.126;8.698;2024-03-06T05:34:05;8.20;99.90
997;DHT22;487;50.126;8.698;2024-03-06T05:36:51;8.30;99.90
997;DHT22;487;50.126;8.698;2024-03-06T05:39:36;8.30;99.90
997;DHT22;487;50.126;8.698;2024-03-06T05:42:21;8.30;99.90
997;DHT22;487;50.126;8.698;2024-03-06T05:45:07;8.30;99.90
997;DHT22;487;50.126;8.698;2024-03-06T05:47:56;8.30;99.90
997;DHT22;487;50.126;8.698;2024-03-06T05:50:41;8.30;99.90
997;DHT22;487;50.126;8.698;2024-03-06T05:53:27;8.20;99.90
997;DHT22;487;50.126;8.698;2024-03-06T05:56:13;8.20;99.90
997;DHT22;487;50.126;8.698;2024-03-06T05:58:58;8.20;99.90
997;DHT22;487;50.126;8.698;2024-03-06T06:01:31;8.20;99.90
997;DHT22;487;50.126;8.698;2024-03-06T06:04:01;8.10;99.90
997;DHT22;487;50.126;8.698;2024-03-06T06:06:33;8.10;99.90
997;DHT22;487;50.126;8.698;2024-03-06T06:09:01;8.10;99.90
997;DHT22;487;50.126;8.698;2024-03-06T06:11:31;8.10;99.90
997;DHT22;487;50.126;8.698;2024-03-06T06:16:34;8.10;99.90
997;DHT22;487;50.126;8.698;2024-03-06T06:19:04;8.10;99.90
997;DHT22;487;50.126;8.698;2024-03-06T06:21:33;8.20;99.90
997;DHT22;487;50.126;8.698;2024-03-06T06:24:02;8.20;99.90
997;DHT22;487;50.126;8.698;2024-03-06T06:26:31;8.20;99.90
997;DHT22;487;50.126;8.698;2024-03-06T06:29:00;8.20;99.90
997;DHT22;487;50.126;8.698;2024-03-06T06:31:29;8.20;99.90
997;DHT22;487;50.126;8.698;2024-03-06T06:33:57;8.20;99.90
997;DHT22;487;50.126;8.698;2024-03-06T06:36:26;8.30;99.90
997;DHT22;487;50.126;8.698;2024-03-06T06:38:54;8.30;99.90
997;DHT22;487;50.126;8.698;2024-03-06T06:41:29;8.30;99.90
997;DHT22;487;50.126;8.698;2024-03-06T06:43:57;8.40;99.90
997;DHT22;487;50.126;8.698;2024-03-06T06:46:25;8.40;99.90
997;DHT22;487;50.126;8.698;2024-03-06T06:48:53;8.30;99.90
997;DHT22;487;50.126;8.698;2024-03-06T06:51:21;8.50;99.90
997;DHT22;487;50.126;8.698;2024-03-06T06:53:51;8.40;99.90
997;DHT22;487;50.126;8.698;2024-03-06T06:56:22;8.50;99.90
997;DHT22;487;50.126;8.698;2024-03-06T06:58:50;8.50;99.90
997;DHT22;487;50.126;8.698;2024-03-06T07:01:18;8.50;99.90
997;DHT22;487;50.126;8.698;2024-03-06T07:03:47;8.50;99.90
997;DHT22;487;50.126;8.698;2024-03-06T07:06:14;8.60;99.90
997;DHT22;487;50.126;8.698;2024-03-06T07:08:44;8.60;99.90
997;DHT22;487;50.126;8.698;2024-03-06T07:11:13;8.40;99.90
997;DHT22;487;50.126;8.698;2024-03-06T07:13:41;8.60;99.90
997;DHT22;487;50.126;8.698;2024-03-06T07:16:09;8.70;99.90
997;DHT22;487;50.126;8.698;2024-03-06T07:18:38;8.60;99.90
997;DHT22;487;50.126;8.698;2024-03-06T07:21:06;8.60;99.90
997;DHT22;487;50.126;8.698;2024-03-06T07:23:34;8.60;99.90
997;DHT22;487;50.126;8.698;2024-03-06T07:26:02;8.70;99.90
997;DHT22;487;50.126;8.698;2024-03-06T07:28:32;8.70;99.90
997;DHT22;487;50.126;8.698;2024-03-06T07:31:00;8.70;99.90
997;DHT22;487;50.126;8.698;2024-03-06T07:33:30;8.70;99.90
997;DHT22;487;50.126;8.698;2024-03-06T07:36:00;8.70;99.90
997;DHT22;487;50.126;8.698;2024-03-06T07:38:28;8.70;99.90
997;DHT22;487;50.126;8.698;2024-03-06T07:40:56;8.70;99.90
997;DHT22;487;50.126;8.698;2024-03-06T07:43:24;8.80;99.90
997;DHT22;487;50.126;8.698;2024-03-06T07:45:54;8.90;99.90
997;DHT22;487;50.126;8.698;2024-03-06T07:50:50;9.00;99.90
997;DHT22;487;50.126;8.698;2024-03-06T07:53:18;9.10;99.90
997;DHT22;487;50.126;8.698;2024-03-06T07:55:47;9.10;99.90
997;DHT22;487;50.126;8.698;2024-03-06T07:58:14;9.20;99.90
997;DHT22;487;50.126;8.698;2024-03-06T08:00:43;9.20;99.90
997;DHT22;487;50.126;8.698;2024-03-06T08:03:13;9.30;99.90
997;DHT22;487;50.126;8.698;2024-03-06T08:05:41;9.30;99.90
997;DHT22;487;50.126;8.698;2024-03-06T08:08:09;9.30;99.90
997;DHT22;487;50.126;8.698;2024-03-06T08:10:37;9.30;99.90
997;DHT22;487;50.126;8.698;2024-03-06T08:13:05;9.20;99.90
997;DHT22;487;50.126;8.698;2024-03-06T08:15:33;9.20;99.90
997;DHT22;487;50.126;8.698;2024-03-06T08:18:00;9.20;99.90
997;DHT22;487;50.126;8.698;2024-03-06T08:22:59;9.30;99.90
997;DHT22;487;50.126;8.698;2024-03-06T08:25:27;9.30;99.90
997;DHT22;487;50.126;8.698;2024-03-06T08:27:55;9.40;99.90
997;DHT22;487;50.126;8.698;2024-03-06T08:30:23;9.40;99.90
997;DHT22;487;50.126;8.698;2024-03-06T08:32:51;9.40;99.90
997;DHT22;487;50.126;8.698;2024-03-06T08:35:19;9.50;99.90
997;DHT22;487;50.126;8.698;2024-03-06T08:37:50;9.60;99.90
997;DHT22;487;50.126;8.698;2024-03-06T08:40:18;9.60;99.90
997;DHT22;487;50.126;8.698;2024-03-06T08:42:46;9.60;99.90
997;DHT22;487;50.126;8.698;2024-03-06T08:45:16;9.60;99.90
997;DHT22;487;50.126;8.698;2024-03-06T08:47:45;9.70;99.90
997;DHT22;487;50.126;8.698;2024-03-06T08:52:43;9.80;99.90
997;DHT22;487;50.126;8.698;2024-03-06T08:55:12;9.80;99.90
997;DHT22;487;50.126;8.698;2024-03-06T08:57:39;9.70;99.90
997;DHT22;487;50.126;8.698;2024-03-06T09:00:08;9.70;99.90
997;DHT22;487;50.126;8.698;2024-03-06T09:02:38;9.70;99.90
997;DHT22;487;50.126;8.698;2024-03-06T09:05:08;9.70;99.90
997;DHT22;487;50.126;8.698;2024-03-06T09:07:37;9.80;99.90
997;DHT22;487;50.126;8.698;2024-03-06T09:10:08;9.80;99.90
997;DHT22;487;50.126;8.698;2024-03-06T09:15:06;9.80;99.90
997;DHT22;487;50.126;8.698;2024-03-06T09:17:35;9.80;99.90
997;DHT22;487;50.126;8.698;2024-03-06T09:20:04;9.80;99.90
997;DHT22;487;50.126;8.698;2024-03-06T09:22:38;9.90;99.90
997;DHT22;487;50.126;8.698;2024-03-06T09:25:06;9.80;99.90
997;DHT22;487;50.126;8.698;2024-03-06T09:27:37;9.90;99.90
997;DHT22;487;50.126;8.698;2024-03-06T09:30:06;9.90;99.90
997;DHT22;487;50.126;8.698;2024-03-06T09:32:35;9.90;99.90
997;DHT22;487;50.126;8.698;2024-03-06T09:35:06;10.00;99.90
997;DHT22;487;50.126;8.698;2024-03-06T09:37:34;10.00;99.90
997;DHT22;487;50.126;8.698;2024-03-06T09:40:03;10.00;99.90
997;DHT22;487;50.126;8.698;2024-03-06T09:42:31;10.00;99.90
997;DHT22;487;50.126;8.698;2024-03-06T09:45:00;10.00;99.90
997;DHT22;487;50.126;8.698;2024-03-06T09:47:31;10.10;99.90
997;DHT22;487;50.126;8.698;2024-03-06T09:50:00;10.10;99.90
997;DHT22;487;50.126;8.698;2024-03-06T09:52:33;10.10;99.90
997;DHT22;487;50.126;8.698;2024-03-06T09:55:02;10.10;99.90
997;DHT22;487;50.126;8.698;2024-03-06T09:57:30;10.10;99.90
997;DHT22;487;50.126;8.698;2024-03-06T10:00:00;10.10;99.90
997;DHT22;487;50.126;8.698;2024-03-06T10:02:31;10.10;99.90
997;DHT22;487;50.126;8.698;2024-03-06T10:05:03;10.30;99.90
997;DHT22;487;50.126;8.698;2024-03-06T10:07:32;10.30;99.90
997;DHT22;487;50.126;8.698;2024-03-06T10:10:00;10.30;99.90
997;DHT22;487;50.126;8.698;2024-03-06T10:12:28;10.30;99.90
997;DHT22;487;50.126;8.698;2024-03-06T10:14:57;10.30;99.90
997;DHT22;487;50.126;8.698;2024-03-06T10:17:26;10.40;99.90
997;DHT22;487;50.126;8.698;2024-03-06T10:22:28;10.50;99.90
997;DHT22;487;50.126;8.698;2024-03-06T10:24:55;10.50;99.90
997;DHT22;487;50.126;8.698;2024-03-06T10:27:24;10.50;99.90
997;DHT22;487;50.126;8.698;2024-03-06T10:30:01;10.50;99.90
997;DHT22;487;50.126;8.698;2024-03-06T10:32:33;10.60;99.90
997;DHT22;487;50.126;8.698;2024-03-06T10:35:01;10.60;99.90
997;DHT22;487;50.126;8.698;2024-03-06T10:37:29;10.60;99.90
997;DHT22;487;50.126;8.698;2024-03-06T10:39:58;10.70;99.90
997;DHT22;487;50.126;8.698;2024-03-06T10:42:27;10.80;99.90
997;DHT22;487;50.126;8.698;2024-03-06T10:44:59;10.80;99.90
997;DHT22;487;50.126;8.698;2024-03-06T10:47:29;11.00;99.90
997;DHT22;487;50.126;8.698;2024-03-06T10:50:02;11.10;99.90
997;DHT22;487;50.126;8.698;2024-03-06T10:52:33;11.20;99.90
997;DHT22;487;50.126;8.698;2024-03-06T10:55:02;11.20;99.90
997;DHT22;487;50.126;8.698;2024-03-06T10:57:30;11.20;99.90
997;DHT22;487;50.126;8.698;2024-03-06T11:00:00;12.50;99.90
997;DHT22;487;50.126;8.698;2024-03-06T11:02:32;11.40;99.90
997;DHT22;487;50.126;8.698;2024-03-06T11:05:04;11.40;99.90
997;DHT22;487;50.126;8.698;2024-03-06T11:07:32;11.50;99.90
997;DHT22;487;50.126;8.698;2024-03-06T11:10:00;11.50;99.90
997;DHT22;487;50.126;8.698;2024-03-06T11:12:32;11.50;99.90
997;DHT22;487;50.126;8.698;2024-03-06T11:15:03;11.50;99.90
997;DHT22;487;50.126;8.698;2024-03-06T11:17:36;11.50;99.90
997;DHT22;487;50.126;8.698;2024-03-06T11:20:17;11.50;99.90
997;DHT22;487;50.126;8.698;2024-03-06T11:23:02;11.50;99.90
997;DHT22;487;50.126;8.698;2024-03-06T11:25:56;11.40;99.90
997;DHT22;487;50.126;8.698;2024-03-06T11:28:26;11.40;99.90
997;DHT22;487;50.126;8.698;2024-03-06T11:30:56;11.40;99.90
997;DHT22;487;50.126;8.698;2024-03-06T11:33:28;11.40;99.90
997;DHT22;487;50.126;8.698;2024-03-06T11:36:18;11.30;99.90
997;DHT22;487;50.126;8.698;2024-03-06T11:38:55;11.30;99.90
997;DHT22;487;50.126;8.698;2024-03-06T11:41:25;11.10;99.90
997;DHT22;487;50.126;8.698;2024-03-06T11:43:55;11.10;99.90
997;DHT22;487;50.126;8.698;2024-03-06T11:46:40;11.00;99.90
997;DHT22;487;50.126;8.698;2024-03-06T11:49:15;11.10;99.90
997;DHT22;487;50.126;8.698;2024-03-06T11:51:46;11.10;99.90
997;DHT22;487;50.126;8.698;2024-03-06T11:54:14;11.10;99.90
997;DHT22;487;50.126;8.698;2024-03-06T11:56:44;11.10;99.90
997;DHT22;487;50.126;8.698;2024-03-06T11:59:13;11.10;99.90
997;DHT22;487;50.126;8.698;2024-03-06T12:01:42;11.30;99.90
997;DHT22;487;50.126;8.698;2024-03-06T14:27:48;11.80;99.90
997;DHT22;487;50.126;8.698;2024-03-06T14:30:16;11.80;99.90
997;DHT22;487;50.126;8.698;2024-03-06T14:35:20;11.70;99.90
997;DHT22;487;50.126;8.698;2024-03-06T14:37:48;11.60;99.90
997;DHT22;487;50.126;8.698;2024-03-06T14:40:16;11.60;99.90
997;DHT22;487;50.126;8.698;2024-03-06T14:42:44;11.50;99.90
997;DHT22;487;50.126;8.698;2024-03-06T14:45:13;11.50;99.90
997;DHT22;487;50.126;8.698;2024-03-06T14:47:41;11.50;99.90
997;DHT22;487;50.126;8.698;2024-03-06T14:52:38;11.50;99.90
997;DHT22;487;50.126;8.698;2024-03-06T14:55:07;11.60;99.90
997;DHT22;487;50.126;8.698;2024-03-06T14:57:35;11.50;99.90
997;DHT22;487;50.126;8.698;2024-03-06T15:00:04;11.50;99.90
997;DHT22;487;50.126;8.698;2024-03-06T15:02:35;11.50;99.90
997;DHT22;487;50.126;8.698;2024-03-06T15:05:04;11.50;99.90
997;DHT22;487;50.126;8.698;2024-03-06T15:07:32;11.50;99.90
997;DHT22;487;50.126;8.698;2024-03-06T15:10:00;11.50;99.90
997;DHT22;487;50.126;8.698;2024-03-06T15:12:27;11.50;99.90
997;DHT22;487;50.126;8.698;2024-03-06T15:14:56;11.50;99.90
997;DHT22;487;50.126;8.698;2024-03-06T15:17:25;11.60;99.90
997;DHT22;487;50.126;8.698;2024-03-06T15:19:55;11.60;99.90
997;DHT22;487;50.126;8.698;2024-03-06T15:22:23;11.60;99.90
997;DHT22;487;50.126;8.698;2024-03-06T15:24:51;11.60;99.90
997;DHT22;487;50.126;8.698;2024-03-06T15:27:21;11.60;99.90
997;DHT22;487;50.126;8.698;2024-03-06T15:29:49;11.60;99.90
997;DHT22;487;50.126;8.698;2024-03-06T15:32:17;11.60;99.90
997;DHT22;487;50.126;8.698;2024-03-06T15:34:45;11.60;99.90
997;DHT22;487;50.126;8.698;2024-03-06T15:37:14;11.60;99.90
997;DHT22;487;50.126;8.698;2024-03-06T15:39:42;11.60;99.90
997;DHT22;487;50.126;8.698;2024-03-06T15:42:10;11.60;99.90
997;DHT22;487;50.126;8.698;2024-03-06T15:44:38;11.60;99.90
997;DHT22;487;50.126;8.698;2024-03-06T15:47:08;11.60;99.90
997;DHT22;487;50.126;8.698;2024-03-06T15:49:37;11.60;99.90
997;DHT22;487;50.126;8.698;2024-03-06T15:52:05;11.40;99.90
997;DHT22;487;50.126;8.698;2024-03-06T15:54:35;11.40;99.90
997;DHT22;487;50.126;8.698;2024-03-06T16:05:01;11.40;99.90
997;DHT22;487;50.126;8.698;2024-03-06T16:07:29;11.40;99.90
997;DHT22;487;50.126;8.698;2024-03-06T16:10:03;11.40;99.90
997;DHT22;487;50.126;8.698;2024-03-06T16:12:32;11.40;99.90
997;DHT22;487;50.126;8.698;2024-03-06T16:15:00;11.30;99.90
997;DHT22;487;50.126;8.698;2024-03-06T16:17:28;11.30;99.90
997;DHT22;487;50.126;8.698;2024-03-06T16:19:57;11.30;99.90
997;DHT22;487;50.126;8.698;2024-03-06T16:22:25;11.30;99.90
997;DHT22;487;50.126;8.698;2024-03-06T16:24:52;11.30;99.90
997;DHT22;487;50.126;8.698;2024-03-06T16:27:22;11.30;99.90
997;DHT22;487;50.126;8.698;2024-03-06T16:29:51;11.20;99.90
997;DHT22;487;50.126;8.698;2024-03-06T16:32:18;11.20;99.90
997;DHT22;487;50.126;8.698;2024-03-06T16:34:46;11.10;99.90
997;DHT22;487;50.126;8.698;2024-03-06T16:37:15;11.10;99.90
997;DHT22;487;50.126;8.698;2024-03-06T16:42:11;11.00;99.90
997;DHT22;487;50.126;8.698;2024-03-06T16:44:41;10.90;99.90
997;DHT22;487;50.126;8.698;2024-03-06T16:47:09;10.90;99.90
997;DHT22;487;50.126;8.698;2024-03-06T16:49:37;10.80;99.90
997;DHT22;487;50.126;8.698;2024-03-06T16:52:05;10.80;99.90
997;DHT22;487;50.126;8.698;2024-03-06T16:54:33;10.80;99.90
997;DHT22;487;50.126;8.698;2024-03-06T16:57:01;10.70;99.90
997;DHT22;487;50.126;8.698;2024-03-06T17:04:28;10.70;99.90
997;DHT22;487;50.126;8.698;2024-03-06T17:06:56;10.60;99.90
997;DHT22;487;50.126;8.698;2024-03-06T17:09:24;10.60;99.90
997;DHT22;487;50.126;8.698;2024-03-06T17:11:52;10.60;99.90
997;DHT22;487;50.126;8.698;2024-03-06T17:14:20;10.60;99.90
997;DHT22;487;50.126;8.698;2024-03-06T17:16:48;10.50;99.90
997;DHT22;487;50.126;8.698;2024-03-06T17:19:18;10.40;99.90
997;DHT22;487;50.126;8.698;2024-03-06T17:21:46;10.40;99.90
997;DHT22;487;50.126;8.698;2024-03-06T17:24:14;10.40;99.90
997;DHT22;487;50.126;8.698;2024-03-06T17:26:42;10.30;99.90
997;DHT22;487;50.126;8.698;2024-03-06T17:29:10;10.30;99.90
997;DHT22;487;50.126;8.698;2024-03-06T17:31:38;10.20;99.90
997;DHT22;487;50.126;8.698;2024-03-06T17:39:05;10.20;99.90
997;DHT22;487;50.126;8.698;2024-03-06T17:41:36;10.10;99.90
997;DHT22;487;50.126;8.698;2024-03-06T17:44:04;10.10;99.90
997;DHT22;487;50.126;8.698;2024-03-06T17:49:03;10.10;99.90
997;DHT22;487;50.126;8.698;2024-03-06T17:51:31;10.00;99.90
997;DHT22;487;50.126;8.698;2024-03-06T17:54:03;10.00;99.90
997;DHT22;487;50.126;8.698;2024-03-06T17:56:31;9.90;99.90
997;DHT22;487;50.126;8.698;2024-03-06T17:58:58;9.80;99.90
997;DHT22;487;50.126;8.698;2024-03-06T18:01:26;9.80;99.90
997;DHT22;487;50.126;8.698;2024-03-06T18:03:55;9.70;99.90
997;DHT22;487;50.126;8.698;2024-03-06T18:06:23;9.70;99.90
997;DHT22;487;50.126;8.698;2024-03-06T18:08:51;9.70;99.90
997;DHT22;487;50.126;8.698;2024-03-06T18:11:21;9.70;99.90
997;DHT22;487;50.126;8.698;2024-03-06T18:13:49;9.60;99.90
997;DHT22;487;50.126;8.698;2024-03-06T18:16:17;9.60;99.90
997;DHT22;487;50.126;8.698;2024-03-06T18:18:45;9.60;99.90
997;DHT22;487;50.126;8.698;2024-03-06T18:21:13;9.50;99.90
997;DHT22;487;50.126;8.698;2024-03-06T18:23:41;9.50;99.90
997;DHT22;487;50.126;8.698;2024-03-06T18:31:10;9.40;99.90
997;DHT22;487;50.126;8.698;2024-03-06T18:33:38;9.40;99.90
997;DHT22;487;50.126;8.698;2024-03-06T18:36:07;9.40;99.90
997;DHT22;487;50.126;8.698;2024-03-06T18:38:35;6.80;99.90
997;DHT22;487;50.126;8.698;2024-03-06T18:41:04;9.40;99.90
997;DHT22;487;50.126;8.698;2024-03-06T18:43:32;9.30;99.90
997;DHT22;487;50.126;8.698;2024-03-06T18:46:03;9.30;99.90
997;DHT22;487;50.126;8.698;2024-03-06T18:48:31;9.30;99.90
997;DHT22;487;50.126;8.698;2024-03-06T18:50:59;9.30;99.90
997;DHT22;487;50.126;8.698;2024-03-06T18:53:29;9.40;99.90
997;DHT22;487;50.126;8.698;2024-03-06T18:55:57;9.30;99.90
997;DHT22;487;50.126;8.698;2024-03-06T19:00:54;9.20;99.90
997;DHT22;487;50.126;8.698;2024-03-06T19:03:23;9.10;99.90
997;DHT22;487;50.126;8.698;2024-03-06T19:08:21;9.10;99.90
997;DHT22;487;50.126;8.698;2024-03-06T19:10:49;9.10;99.90
997;DHT22;487;50.126;8.698;2024-03-06T19:15:46;9.00;99.90
997;DHT22;487;50.126;8.698;2024-03-06T19:18:14;10.20;99.90
997;DHT22;487;50.126;8.698;2024-03-06T19:20:43;9.10;99.90
997;DHT22;487;50.126;8.698;2024-03-06T19:23:11;9.00;99.90
997;DHT22;487;50.126;8.698;2024-03-06T19:25:40;9.00;99.90
997;DHT22;487;50.126;8.698;2024-03-06T19:28:08;9.00;99.90
997;DHT22;487;50.126;8.698;2024-03-06T19:30:35;8.90;99.90
997;DHT22;487;50.126;8.698;2024-03-06T19:33:04;8.90;99.90
997;DHT22;487;50.126;8.698;2024-03-06T19:38:02;8.80;99.90
997;DHT22;487;50.126;8.698;2024-03-06T19:40:30;8.70;99.90
997;DHT22;487;50.126;8.698;2024-03-06T19:42:57;8.80;99.90
997;DHT22;487;50.126;8.698;2024-03-06T19:45:25;9.90;99.90
997;DHT22;487;50.126;8.698;2024-03-06T19:47:54;8.80;99.90
997;DHT22;487;50.126;8.698;2024-03-06T19:50:22;8.80;99.90
997;DHT22;487;50.126;8.698;2024-03-06T19:52:50;8.80;99.90
997;DHT22;487;50.126;8.698;2024-03-06T19:57:48;8.80;99.90
997;DHT22;487;50.126;8.698;2024-03-06T20:00:16;8.80;99.90
997;DHT22;487;50.126;8.698;2024-03-06T20:02:46;8.80;99.90
997;DHT22;487;50.126;8.698;2024-03-06T20:05:16;8.80;99.90
997;DHT22;487;50.126;8.698;2024-03-06T20:10:13;8.70;99.90
997;DHT22;487;50.126;8.698;2024-03-06T20:12:43;8.70;99.90
997;DHT22;487;50.126;8.698;2024-03-06T20:15:11;8.60;99.90
997;DHT22;487;50.126;8.698;2024-03-06T20:17:41;8.70;99.90
997;DHT22;487;50.126;8.698;2024-03-06T20:20:10;8.60;99.90
997;DHT22;487;50.126;8.698;2024-03-06T20:22:39;8.60;99.90
997;DHT22;487;50.126;8.698;2024-03-06T20:25:08;8.60;99.90
997;DHT22;487;50.126;8.698;2024-03-06T20:27:37;8.60;99.90
997;DHT22;487;50.126;8.698;2024-03-06T20:30:08;8.60;99.90
997;DHT22;487;50.126;8.698;2024-03-06T20:32:37;8.60;99.90
997;DHT22;487;50.126;8.698;2024-03-06T20:35:07;8.50;99.90